Time;durP1;ratioP1;P1;durP2;ratioP2;P2;SDS_P1;SDS_P2;PMS_P1;PMS_P2;Temp;Humidity;BMP_temperature;BMP_pressure;BME280_temperature;BME280_humidity;BME280_pressure;Samples;Min_cycle;Max_cycle;Signal;HPM_P1;HPM_P2
2022/08/19 00:01:54;;;;;;;13.23;10.77;;;;;;;24.59;79.34;98907.31;5035263;28;20029;-78
2022/08/19 00:04:26;;;;;;;13.23;10.48;;;;;;;24.54;79.25;98902.53;5035001;28;20072;-79
2022/08/19 00:06:51;;;;;;;12.65;10.52;;;;;;;24.51;78.82;98892.22;5035118;28;20121;-79
2022/08/19 00:09:19;;;;;;;12.38;9.43;;;;;;;24.51;79.18;98892.22;5034729;28;20108;-79
2022/08/19 00:11:45;;;;;;;12.57;9.95;;;;;;;24.54;78.70;98902.53;5034913;28;20091;-79
2022/08/19 00:14:13;;;;;;;15.25;10.65;;;;;;;24.50;78.85;98884.44;5034867;28;20061;-80
2022/08/19 00:16:41;;;;;;;13.90;9.90;;;;;;;24.53;78.68;98874.25;5034742;28;20057;-79
2022/08/19 00:19:06;;;;;;;12.90;9.50;;;;;;;24.55;78.81;98877.56;5034914;28;20022;-79
2022/08/19 00:21:32;;;;;;;12.00;10.40;;;;;;;24.55;78.18;98885.53;5016852;28;20520;-79
2022/08/19 00:24:00;;;;;;;10.88;9.55;;;;;;;24.55;78.23;98871.41;5034752;28;20108;-79
2022/08/19 00:26:27;;;;;;;14.13;9.70;;;;;;;24.50;77.78;98863.13;5034339;28;20067;-79
2022/08/19 00:28:53;;;;;;;11.55;9.55;;;;;;;24.48;78.06;98859.81;5034838;28;20029;-79
2022/08/19 00:31:18;;;;;;;10.93;9.02;;;;;;;24.53;78.15;98868.09;5016709;28;20112;-79
2022/08/19 00:33:43;;;;;;;14.60;10.25;;;;;;;24.54;77.63;98864.44;5034608;28;20064;-80
2022/08/19 00:36:10;;;;;;;10.98;9.75;;;;;;;24.52;77.46;98853.94;5034522;28;20116;-80
2022/08/19 00:38:37;;;;;;;10.40;9.35;;;;;;;24.54;77.21;98851.13;5034195;28;20036;-80
2022/08/19 00:41:04;;;;;;;16.75;10.65;;;;;;;24.54;77.79;98845.78;5034263;28;20029;-80
2022/08/19 00:43:30;;;;;;;12.95;9.20;;;;;;;24.50;76.84;98833.84;5034289;28;20047;-79
2022/08/19 00:45:55;;;;;;;13.13;9.27;;;;;;;24.44;77.24;98832.75;5034437;28;20507;-79
2022/08/19 00:48:21;;;;;;;10.30;8.90;;;;;;;24.49;77.18;98842.84;5034406;28;20373;-80
2022/08/19 00:50:48;;;;;;;10.40;8.45;;;;;;;24.43;77.31;98841.72;5034271;28;20438;-80
2022/08/19 00:53:17;;;;;;;11.07;10.00;;;;;;;24.38;77.58;98830.78;5033779;28;20026;-80
2022/08/19 00:55:45;;;;;;;13.45;9.32;;;;;;;24.39;77.81;98827.09;5034063;28;20030;-80
2022/08/19 00:58:14;;;;;;;10.93;8.73;;;;;;;24.36;77.91;98824.81;5034282;28;20493;-80
2022/08/19 01:00:40;;;;;;;10.07;8.90;;;;;;;24.28;78.10;98827.53;5033905;28;20029;-80
2022/08/19 01:03:09;;;;;;;11.52;8.98;;;;;;;24.29;78.19;98831.84;5034132;28;20026;-81
2022/08/19 01:05:36;;;;;;;16.42;9.60;;;;;;;24.24;77.90;98820.91;5033888;28;20421;-80
2022/08/19 01:08:04;;;;;;;14.68;10.35;;;;;;;24.24;77.83;98828.91;5033700;28;20054;-80
2022/08/19 01:10:33;;;;;;;11.90;8.85;;;;;;;24.24;77.74;98847.53;5033788;28;20386;-80
2022/08/19 01:13:00;;;;;;;12.60;9.68;;;;;;;24.26;77.72;98826.88;5033939;28;20168;-80
2022/08/19 01:15:30;;;;;;;12.70;9.27;;;;;;;24.38;77.54;98828.94;5015912;28;20120;-80
2022/08/19 01:17:57;;;;;;;;;;;;;;;24.41;77.50;98833.09;5034351;28;20442;-80
2022/08/19 01:20:23;;;;;;;11.63;8.88;;;;;;;24.37;77.32;98818.47;5033499;28;19913;-80
2022/08/19 01:22:56;;;;;;;11.35;9.30;;;;;;;24.30;77.90;98801.56;5033456;28;20025;-80
2022/08/19 01:25:26;;;;;;;10.95;9.80;;;;;;;24.28;77.67;98798.25;5015628;28;20025;-80
2022/08/19 01:27:52;;;;;;;9.93;8.90;;;;;;;24.26;77.91;98774.47;5033621;28;20067;-80
2022/08/19 01:30:25;;;;;;;10.23;9.07;;;;;;;24.19;78.00;98760.25;5033530;28;20087;-80
2022/08/19 01:32:53;;;;;;;14.23;9.95;;;;;;;24.33;77.79;98791.38;5033460;28;20551;-80
2022/08/19 01:35:19;;;;;;;12.23;10.30;;;;;;;24.37;77.59;98797.16;5033301;28;20495;-80
2022/08/19 01:37:54;;;;;;;12.35;8.90;;;;;;;24.31;78.01;98776.59;5033578;28;20025;-80
2022/08/19 01:40:22;;;;;;;12.50;9.30;;;;;;;24.33;77.91;98794.03;5033369;28;20056;-80
2022/08/19 01:42:48;;;;;;;11.13;9.43;;;;;;;24.33;78.22;98790.56;5033201;28;20036;-80
2022/08/19 01:45:14;;;;;;;12.25;10.95;;;;;;;24.31;78.26;98790.75;5033228;28;20152;-80
2022/08/19 01:47:40;;;;;;;11.77;10.13;;;;;;;24.30;78.27;98785.59;5032883;28;20576;-80
2022/08/19 01:50:09;;;;;;;10.43;9.13;;;;;;;24.24;78.79;98778.34;5033739;28;20121;-80
2022/08/19 01:52:40;;;;;;;10.03;8.87;;;;;;;24.27;78.59;98785.94;5033064;28;20029;-79
2022/08/19 01:55:06;;;;;;;;;;;;;;;24.24;78.89;98778.34;5033597;28;20748;-79
2022/08/19 01:57:32;;;;;;;13.10;10.00;;;;;;;24.16;79.35;98757.94;5032877;28;19909;-80
2022/08/19 01:59:59;;;;;;;10.15;9.25;;;;;;;24.06;79.09;98755.53;5032898;28;20033;-80
2022/08/19 02:02:24;;;;;;;10.65;9.55;;;;;;;24.04;79.45;98759.38;5032494;28;20033;-79
2022/08/19 02:04:50;;;;;;;15.73;9.95;;;;;;;24.03;79.55;98763.88;5032241;28;20064;-80
2022/08/19 02:07:18;;;;;;;12.88;10.00;;;;;;;23.98;80.13;98760.94;5032817;28;20132;-80
2022/08/19 02:09:43;;;;;;;10.80;9.70;;;;;;;23.92;79.98;98766.13;5032652;28;20029;-79
2022/08/19 02:12:09;;;;;;;14.25;10.25;;;;;;;23.88;80.37;98766.47;5032751;28;20048;-79
2022/08/19 02:14:36;;;;;;;10.70;9.68;;;;;;;23.83;80.47;98778.66;5032393;28;20389;-80
2022/08/19 02:17:02;;;;;;;13.18;9.77;;;;;;;23.83;80.62;98778.66;5033075;28;20034;-80
2022/08/19 02:19:27;;;;;;;12.35;10.05;;;;;;;23.79;80.79;98777.34;5032583;28;20441;-81
2022/08/19 02:21:53;;;;;;;11.25;9.10;;;;;;;23.74;81.23;98767.25;5032535;28;20112;-80
2022/08/19 02:24:18;;;;;;;13.13;8.98;;;;;;;23.71;81.48;98767.59;5032578;28;20021;-80
2022/08/19 02:26:43;;;;;;;12.15;10.60;;;;;;;23.70;81.75;98773.94;5032601;28;20048;-80
2022/08/19 02:29:09;;;;;;;10.45;9.45;;;;;;;23.63;81.92;98757.00;5032428;28;20026;-80
2022/08/19 02:31:34;;;;;;;11.85;9.50;;;;;;;23.57;82.49;98752.41;5014361;28;20090;-80
2022/08/19 02:34:00;;;;;;;11.88;9.80;;;;;;;23.55;82.22;98752.56;5032446;28;20025;-80
2022/08/19 02:36:26;;;;;;;14.00;9.90;;;;;;;23.54;82.77;98758.06;5032190;28;20103;-80
2022/08/19 02:38:51;;;;;;;11.00;9.90;;;;;;;23.46;82.89;98750.97;5032338;28;20473;-81
2022/08/19 02:41:22;;;;;;;16.35;9.60;;;;;;;23.39;83.71;98758.00;5014475;28;20489;-80
2022/08/19 02:43:47;;;;;;;15.18;9.25;;;;;;;23.38;83.76;98767.78;5031943;28;20030;-80
2022/08/19 02:46:22;;;;;;;12.07;10.88;;;;;;;23.35;84.21;98762.00;5032044;28;20172;-80
2022/08/19 02:48:49;;;;;;;11.35;9.57;;;;;;;23.27;84.22;98744.28;5032002;28;20036;-80
2022/08/19 02:51:17;;;;;;;11.60;9.90;;;;;;;23.24;84.83;98730.50;5032252;28;20033;-81
2022/08/19 02:53:43;;;;;;;11.75;10.43;;;;;;;23.22;85.00;98746.63;5031885;28;20060;-81
2022/08/19 02:56:08;;;;;;;12.57;10.45;;;;;;;23.13;85.39;98747.66;5032040;28;20555;-80
2022/08/19 02:58:33;;;;;;;11.80;10.23;;;;;;;23.15;85.50;98758.94;5031639;28;20489;-81
2022/08/19 03:00:59;;;;;;;11.10;10.00;;;;;;;23.05;85.87;98748.53;5032087;28;20029;-81
2022/08/19 03:03:25;;;;;;;12.30;10.35;;;;;;;23.10;86.10;98761.31;5032105;28;20152;-81
2022/08/19 03:05:50;;;;;;;12.13;10.10;;;;;;;23.05;86.02;98750.34;5031582;28;20482;-81
2022/08/19 03:08:16;;;;;;;13.63;10.98;;;;;;;23.07;86.58;98754.50;5014238;28;20029;-80
2022/08/19 03:10:44;;;;;;;14.23;10.60;;;;;;;23.02;86.80;98762.16;5013905;28;20026;-81
2022/08/19 03:13:11;;;;;;;13.38;10.63;;;;;;;22.96;87.16;98762.00;5031743;28;20485;-81
2022/08/19 03:15:40;;;;;;;12.65;10.93;;;;;;;22.91;86.79;98758.03;5015280;28;20036;-81
2022/08/19 03:18:06;;;;;;;13.68;10.85;;;;;;;22.89;87.09;98760.03;5036122;28;20061;-81
2022/08/19 03:20:31;;;;;;;16.98;12.60;;;;;;;22.89;87.64;98773.31;5035785;28;20521;-81
2022/08/19 03:22:57;;;;;;;13.93;10.70;;;;;;;22.82;87.74;98774.16;5035853;28;20029;-81
2022/08/19 03:25:22;;;;;;;16.60;11.52;;;;;;;22.83;87.94;98786.41;5035776;28;20083;-81
2022/08/19 03:27:48;;;;;;;12.18;10.88;;;;;;;22.81;88.38;98775.97;5017733;28;20036;-81
2022/08/19 03:30:14;;;;;;;13.50;11.43;;;;;;;22.76;88.77;98780.97;5018062;28;20589;-80
2022/08/19 03:32:39;;;;;;;12.10;10.52;;;;;;;22.66;89.00;98773.19;5035656;28;20068;-80
2022/08/19 03:35:05;;;;;;;11.48;10.35;;;;;;;22.70;89.00;98781.63;5035726;28;20033;-80
2022/08/19 03:37:31;;;;;;;14.55;11.10;;;;;;;22.66;89.45;98772.38;5035490;28;20026;-79
2022/08/19 03:39:56;;;;;;;14.68;12.80;;;;;;;22.61;89.73;98777.34;5035722;28;20029;-80
2022/08/19 03:42:22;;;;;;;13.48;11.35;;;;;;;22.53;90.09;98782.69;5035425;28;20025;-80
2022/08/19 03:44:47;;;;;;;12.65;11.35;;;;;;;22.52;90.44;98792.47;5035300;28;20033;-80
2022/08/19 03:47:16;;;;;;;14.23;11.50;;;;;;;22.50;90.25;98797.13;5035472;28;20052;-79
2022/08/19 03:49:42;;;;;;;15.23;12.68;;;;;;;22.56;90.48;98800.94;5035270;28;20032;-79
2022/08/19 03:52:08;;;;;;;18.98;11.90;;;;;;;22.55;90.36;98801.94;5035298;28;20086;-79
2022/08/19 03:54:37;;;;;;;14.00;12.32;;;;;;;22.55;90.52;98791.31;5035336;28;20108;-79
2022/08/19 03:57:03;;;;;;;13.85;11.35;;;;;;;22.49;90.65;98792.81;5035479;28;20021;-80
2022/08/19 03:59:32;;;;;;;12.52;11.10;;;;;;;22.52;90.55;98797.78;5035108;28;20033;-80
2022/08/19 04:02:00;;;;;;;12.70;11.40;;;;;;;22.56;90.40;98793.78;5035323;28;20029;-80
2022/08/19 04:04:26;;;;;;;13.88;11.48;;;;;;;22.56;90.44;98795.63;5035055;28;20485;-80
2022/08/19 04:06:52;;;;;;;14.10;12.70;;;;;;;22.52;90.86;98786.34;5016985;28;20077;-80
2022/08/19 04:09:18;;;;;;;14.95;11.82;;;;;;;22.58;90.80;98806.88;5035070;28;20397;-80
2022/08/19 04:11:54;;;;;;;12.98;11.63;;;;;;;22.54;90.74;98797.59;5034927;28;20113;-80
2022/08/19 04:14:24;;;;;;;14.98;11.85;;;;;;;22.66;90.39;98814.84;5017330;28;20030;-80
2022/08/19 04:16:49;;;;;;;19.35;11.98;;;;;;;22.66;90.66;98810.34;5034767;28;20052;-80
2022/08/19 04:19:16;;;;;;;13.75;12.30;;;;;;;22.74;90.49;98816.66;5034871;28;20030;-80
2022/08/19 04:21:45;;;;;;;18.75;13.18;;;;;;;22.79;89.90;98811.66;5034643;28;20025;-80
2022/08/19 04:24:10;;;;;;;14.73;11.90;;;;;;;22.77;90.01;98803.03;5017124;28;20415;-80
2022/08/19 04:26:37;;;;;;;12.77;11.60;;;;;;;22.88;89.77;98815.94;5034090;28;20105;-80
2022/08/19 04:29:11;;;;;;;14.50;11.95;;;;;;;22.98;89.22;98823.75;5034442;28;20029;-80
2022/08/19 04:31:36;;;;;;;13.13;11.82;;;;;;;23.04;89.25;98828.38;5034401;28;20025;-80
2022/08/19 04:34:05;;;;;;;14.52;13.00;;;;;;;23.14;88.95;98816.56;5034564;28;20037;-79
2022/08/19 04:36:34;;;;;;;13.30;11.98;;;;;;;23.21;88.81;98819.34;5016454;28;20499;-79
2022/08/19 04:39:06;;;;;;;17.17;12.05;;;;;;;23.31;87.87;98809.34;5034666;28;20029;-79
2022/08/19 04:44:18;;;;;;;14.45;12.25;;;;;;;23.56;87.18;98811.88;5034684;28;20103;-79
2022/08/19 04:46:45;;;;;;;16.83;12.38;;;;;;;23.63;86.81;98810.16;5034184;28;20052;-78
2022/08/19 04:49:11;;;;;;;14.35;11.95;;;;;;;23.67;86.50;98792.88;5034201;28;20458;-79
2022/08/19 04:51:36;;;;;;;15.43;11.82;;;;;;;23.79;86.67;98810.09;5033936;28;20033;-79
2022/08/19 04:54:02;;;;;;;18.38;11.60;;;;;;;23.93;85.39;98805.84;5034345;28;20175;-80
2022/08/19 04:56:28;;;;;;;15.82;12.50;;;;;;;24.24;84.50;98810.25;5016540;28;20508;-80
2022/08/19 04:58:55;;;;;;;16.02;12.57;;;;;;;24.34;83.20;98802.84;5034096;28;20033;-80
2022/08/19 05:01:28;;;;;;;18.58;12.95;;;;;;;24.23;83.44;98816.56;5033990;28;20026;-79
2022/08/19 05:03:53;;;;;;;15.88;13.43;;;;;;;24.02;84.10;98793.28;5034045;28;20033;-80
2022/08/19 05:06:21;;;;;;;14.35;12.85;;;;;;;24.25;84.44;98806.59;5034093;28;20090;-80
2022/08/19 05:08:47;;;;;;;19.23;13.48;;;;;;;24.28;83.96;98795.59;5033926;28;20033;-82
2022/08/19 05:11:24;;;;;;;14.73;12.75;;;;;;;24.29;83.73;98792.75;5033912;28;20037;-82
2022/08/19 05:13:49;;;;;;;16.92;12.95;;;;;;;24.49;83.50;98798.41;5015737;28;20080;-81
2022/08/19 05:16:17;;;;;;;14.20;12.77;;;;;;;24.68;82.41;98790.91;5033755;28;20417;-81
2022/08/19 05:24:13;;;;;;;16.02;13.45;;;;;;;24.98;80.77;98791.72;5033662;28;20068;-79
2022/08/19 05:26:41;;;;;;;14.52;13.02;;;;;;;25.20;80.68;98804.16;5033230;28;20461;-79
2022/08/19 05:29:08;;;;;;;18.02;13.20;;;;;;;25.16;80.42;98794.88;5033744;28;20030;-79
2022/08/19 05:31:35;;;;;;;16.08;12.30;;;;;;;25.20;80.21;98789.97;5033527;28;20571;-80
2022/08/19 05:34:01;;;;;;;15.60;13.23;;;;;;;25.34;79.57;98794.47;5033533;28;20056;-79
2022/08/19 05:36:28;;;;;;;18.83;13.27;;;;;;;25.23;79.78;98794.94;5033390;28;20076;-80
2022/08/19 05:38:54;;;;;;;15.95;13.13;;;;;;;25.19;80.48;98805.16;5033117;28;20436;-80
2022/08/19 05:41:23;;;;;;;14.45;12.95;;;;;;;25.20;80.29;98803.31;5033258;28;20036;-79
2022/08/19 05:43:49;;;;;;;18.00;13.18;;;;;;;25.26;80.34;98806.06;5033218;28;20068;-79
2022/08/19 05:46:19;;;;;;;19.27;13.15;;;;;;;25.46;79.44;98816.97;5015519;28;20412;-80
2022/08/19 05:48:45;;;;;;;19.80;13.88;;;;;;;25.63;78.91;98807.72;5033005;28;20087;-80
2022/08/19 05:51:11;;;;;;;21.27;14.07;;;;;;;25.96;77.74;98812.63;5033090;28;20037;-80
2022/08/19 05:53:37;;;;;;;15.85;13.30;;;;;;;25.99;77.41;98809.56;5033043;28;20075;-80
2022/08/19 05:56:15;;;;;;;14.98;12.77;;;;;;;26.36;76.48;98811.09;5015455;28;20133;-80
2022/08/19 05:58:41;;;;;;;14.40;12.90;;;;;;;26.28;76.21;98811.25;5032742;28;20576;-80
2022/08/19 06:01:18;;;;;;;15.23;12.18;;;;;;;26.62;75.38;98813.19;5032916;28;20033;-80
2022/08/19 06:03:45;;;;;;;14.45;12.68;;;;;;;26.66;75.11;98818.13;5032651;28;20025;-80
2022/08/19 06:06:13;;;;;;;16.23;13.18;;;;;;;26.53;75.29;98813.53;5032524;28;20049;-80
2022/08/19 06:08:39;;;;;;;18.23;14.65;;;;;;;26.57;74.98;98828.97;5032825;28;20175;-80
2022/08/19 06:11:18;;;;;;;13.63;12.27;;;;;;;27.04;74.01;98837.28;5015336;28;20121;-80
2022/08/19 06:13:47;;;;;;;13.57;12.18;;;;;;;27.49;72.36;98840.41;5032684;28;20104;-80
2022/08/19 06:16:14;;;;;;;15.88;11.82;;;;;;;27.89;71.46;98846.72;5032728;28;20412;-80
2022/08/19 06:18:39;;;;;;;14.25;11.25;;;;;;;27.97;70.61;98851.88;5032381;28;20021;-80
2022/08/19 06:21:05;;;;;;;16.30;12.52;;;;;;;28.36;69.44;98861.06;5032591;28;20088;-81
2022/08/19 06:23:30;;;;;;;13.20;11.43;;;;;;;28.75;68.43;98856.72;5032447;28;20039;-80
2022/08/19 06:25:56;;;;;;;12.75;11.35;;;;;;;29.22;67.11;98862.81;5014489;28;20032;-79
2022/08/19 06:28:23;;;;;;;14.38;11.20;;;;;;;29.31;66.13;98866.91;5032478;28;20350;-80
2022/08/19 06:30:49;;;;;;;12.63;11.10;;;;;;;29.41;65.88;98874.50;5032104;28;20033;-80
2022/08/19 06:33:14;;;;;;;13.07;11.88;;;;;;;29.57;65.17;98892.84;5032264;28;20041;-80
2022/08/19 06:35:41;;;;;;;13.65;12.23;;;;;;;29.70;65.04;98894.66;5032208;28;20030;-80
2022/08/19 06:38:07;;;;;;;13.52;10.88;;;;;;;30.02;64.14;98901.72;5032218;28;20039;-80
2022/08/19 06:40:32;;;;;;;13.30;11.90;;;;;;;30.33;62.65;98886.69;5032330;28;20451;-80
2022/08/19 06:42:59;;;;;;;13.93;12.13;;;;;;;30.59;62.02;98888.34;5031989;28;20044;-80
2022/08/19 06:45:25;;;;;;;14.30;10.85;;;;;;;30.85;61.69;98886.50;5032178;28;20033;-81
2022/08/19 06:47:55;;;;;;;14.73;11.30;;;;;;;31.31;60.67;98891.44;5031782;28;20029;-80
2022/08/19 06:50:21;;;;;;;;;;;;;;;31.81;60.06;98896.59;5032014;28;20580;-80
2022/08/19 06:52:47;;;;;;;17.23;12.57;;;;;;;31.67;58.13;98897.84;5031919;28;19951;-80
2022/08/19 06:55:12;;;;;;;14.23;10.80;;;;;;;32.22;57.33;98886.97;5032150;28;20064;-81
2022/08/19 06:57:38;;;;;;;13.73;11.48;;;;;;;32.71;56.78;98909.25;5031963;28;20091;-81
2022/08/19 07:00:08;;;;;;;15.15;10.77;;;;;;;35.14;51.87;98908.84;5031645;28;20025;-81
2022/08/19 07:02:37;;;;;;;17.98;11.20;;;;;;;37.00;46.71;98914.13;5031776;28;20481;-80
2022/08/19 07:05:03;;;;;;;11.93;10.73;;;;;;;39.14;42.78;98911.88;5031799;28;20493;-80
2022/08/19 07:07:28;;;;;;;17.13;11.45;;;;;;;40.45;39.95;98915.34;5031793;28;20096;-80
2022/08/19 07:09:54;;;;;;;10.18;8.95;;;;;;;42.24;37.70;98931.44;5031632;28;20057;-80
2022/08/19 07:12:19;;;;;;;16.90;9.50;;;;;;;43.63;35.64;98930.63;5031873;28;20065;-80
2022/08/19 07:14:48;;;;;;;13.45;8.70;;;;;;;45.10;34.37;98935.69;5031520;28;20045;-80
2022/08/19 07:17:14;;;;;;;9.93;8.60;;;;;;;46.37;32.39;98939.38;5032278;28;20068;-80
2022/08/19 07:19:41;;;;;;;11.65;8.57;;;;;;;46.83;31.23;98932.34;5031877;28;20057;-81
2022/08/19 07:22:07;;;;;;;11.40;9.07;;;;;;;47.60;30.07;98931.19;5031767;28;20030;-81
2022/08/19 07:24:34;;;;;;;10.00;7.70;;;;;;;48.59;28.99;98938.91;5031642;28;20062;-81
2022/08/19 07:27:02;;;;;;;9.32;7.70;;;;;;;49.75;27.94;98949.84;5033986;28;20034;-81
2022/08/19 07:29:32;;;;;;;10.93;7.75;;;;;;;50.47;27.82;98955.53;5051413;28;20029;-82
2022/08/19 07:31:59;;;;;;;13.48;7.18;;;;;;;51.08;26.27;98947.69;5051555;28;20430;-81
2022/08/19 07:34:28;;;;;;;10.70;6.70;;;;;;;51.39;25.93;98949.66;5052004;28;20036;-81
2022/08/19 07:36:54;;;;;;;7.13;6.40;;;;;;;51.81;25.52;98954.59;5051580;28;20029;-80
2022/08/19 07:39:24;;;;;;;9.35;7.00;;;;;;;52.00;25.52;98953.81;5051565;28;20029;-79
2022/08/19 07:41:50;;;;;;;7.97;5.82;;;;;;;52.26;25.15;98933.75;5050934;28;20025;-79
2022/08/19 07:44:18;;;;;;;8.55;5.95;;;;;;;52.68;24.82;98952.44;5051686;28;20021;-79
2022/08/19 07:46:48;;;;;;;9.15;6.75;;;;;;;52.85;24.14;98946.38;5051408;28;20287;-79
2022/08/19 07:49:18;;;;;;;10.18;6.45;;;;;;;52.86;24.35;98961.88;5051408;28;20477;-79
2022/08/19 07:51:46;;;;;;;7.50;6.07;;;;;;;52.97;23.74;98958.50;5051192;28;20116;-79
2022/08/19 07:54:11;;;;;;;8.60;6.10;;;;;;;53.25;23.80;98970.13;5050823;28;20032;-79
2022/08/19 07:56:37;;;;;;;8.32;5.95;;;;;;;53.05;23.95;98972.16;5050212;28;20028;-79
2022/08/19 07:59:03;;;;;;;7.07;5.30;;;;;;;53.13;23.43;98967.50;5050500;28;20049;-77
2022/08/19 08:01:28;;;;;;;7.80;6.20;;;;;;;53.11;23.58;98964.31;5032552;28;20461;-78
2022/08/19 08:09:27;;;;;;;6.45;5.70;;;;;;;53.83;23.02;98975.38;5051816;28;20078;-78
2022/08/19 08:11:59;;;;;;;8.45;5.78;;;;;;;53.65;22.55;98977.13;5053995;28;20036;-78
2022/08/19 08:14:32;;;;;;;6.55;5.47;;;;;;;53.25;22.62;98977.66;5052139;28;20017;-78
2022/08/19 08:16:59;;;;;;;5.28;4.70;;;;;;;51.08;23.93;98974.63;5053796;28;20548;-79
2022/08/19 08:19:26;;;;;;;6.30;5.28;;;;;;;47.12;26.86;98959.97;5053871;28;20021;-78
2022/08/19 08:21:54;;;;;;;6.32;5.72;;;;;;;44.03;29.52;98961.84;5053989;28;20025;-78
2022/08/19 08:24:20;;;;;;;6.13;5.45;;;;;;;41.94;32.33;98946.34;5053996;28;20489;-79
2022/08/19 08:26:46;;;;;;;5.80;5.20;;;;;;;40.42;34.05;98951.44;5054393;28;20051;-78
2022/08/19 08:29:12;;;;;;;6.57;5.57;;;;;;;39.04;36.24;98954.69;5054276;28;20119;-79
2022/08/19 08:31:39;;;;;;;7.93;5.47;;;;;;;37.94;37.91;98951.28;5054263;28;20028;-78
2022/08/19 08:34:05;;;;;;;8.98;6.00;;;;;;;37.36;39.50;98952.31;5036012;28;20393;-78
2022/08/19 08:36:33;;;;;;;8.00;6.00;;;;;;;36.92;40.07;98953.41;5052193;28;20021;-78
2022/08/19 08:38:59;;;;;;;7.78;5.90;;;;;;;36.53;41.28;98950.06;5053740;28;20025;-78
2022/08/19 08:41:44;;;;;;;9.98;6.20;;;;;;;36.13;41.97;98940.44;5053339;28;20033;-77
2022/08/19 08:44:38;;;;;;;6.82;6.13;;;;;;;35.79;42.83;98934.34;5053947;28;20110;-78
2022/08/19 08:47:12;;;;;;;6.93;5.72;;;;;;;35.59;43.03;98955.78;5054057;28;20106;-77
2022/08/19 08:49:56;;;;;;;6.72;6.07;;;;;;;35.30;44.21;98950.47;5053778;28;20050;-77
2022/08/19 08:52:29;;;;;;;9.45;6.50;;;;;;;35.12;44.52;98959.72;5036099;28;20063;-78
2022/08/19 08:54:57;;;;;;;7.50;6.30;;;;;;;34.87;44.92;98943.88;5053276;28;20032;-78
2022/08/19 08:57:36;;;;;;;7.40;6.70;;;;;;;34.61;44.70;98950.75;5053800;28;20029;-77
2022/08/19 09:00:08;;;;;;;9.50;6.53;;;;;;;34.32;46.49;98947.25;5053931;28;20025;-77
2022/08/19 09:02:34;;;;;;;9.60;6.22;;;;;;;34.20;46.73;98960.00;5053857;28;20033;-77
2022/08/19 09:05:00;;;;;;;10.35;6.68;;;;;;;34.09;46.43;98955.44;5053164;28;20560;-78
2022/08/19 09:07:44;;;;;;;7.70;6.38;;;;;;;34.04;46.70;98945.38;5053546;28;20049;-78
2022/08/19 09:10:26;;;;;;;7.40;6.70;;;;;;;34.03;47.04;98949.16;5053375;28;20140;-77
2022/08/19 09:12:59;;;;;;;7.72;6.18;;;;;;;33.96;47.36;98941.19;5052980;28;20025;-77
2022/08/19 09:15:34;;;;;;;9.57;6.80;;;;;;;33.70;48.04;98936.28;5053018;28;20025;-77
2022/08/19 09:18:02;;;;;;;9.95;7.38;;;;;;;33.40;49.56;98931.06;5053307;28;20027;-77
2022/08/19 09:20:28;;;;;;;14.65;7.15;;;;;;;33.33;49.47;98927.66;5053225;28;20115;-77
2022/08/19 09:22:53;;;;;;;7.97;7.15;;;;;;;33.40;49.24;98937.28;5052738;28;20461;-77
2022/08/19 09:25:22;;;;;;;10.27;7.28;;;;;;;33.52;49.60;98946.19;5053350;28;20033;-77
2022/08/19 09:27:49;;;;;;;9.82;7.20;;;;;;;33.55;49.11;98936.00;5052322;28;20108;-78
2022/08/19 09:30:26;;;;;;;9.27;6.57;;;;;;;33.59;47.85;98946.09;5052848;28;20032;-78
2022/08/19 09:32:52;;;;;;;8.50;6.55;;;;;;;33.64;48.47;98939.97;5053045;28;20029;-78
2022/08/19 09:35:21;;;;;;;9.60;6.35;;;;;;;33.69;48.93;98931.97;5052874;28;20082;-78
2022/08/19 09:37:48;;;;;;;9.48;6.57;;;;;;;33.76;49.09;98936.19;5052700;28;20061;-78
2022/08/19 09:40:15;;;;;;;7.38;6.63;;;;;;;33.77;48.84;98924.31;5052620;28;20037;-78
2022/08/19 09:42:43;;;;;;;9.10;6.57;;;;;;;33.78;48.86;98933.22;5052558;28;20127;-78
2022/08/19 09:45:09;;;;;;;9.80;6.78;;;;;;;33.75;49.48;98937.25;5052638;28;20131;-78
2022/08/19 09:47:37;;;;;;;9.20;6.18;;;;;;;33.84;48.22;98944.94;5052791;28;20107;-78
2022/08/19 09:50:05;;;;;;;12.40;6.32;;;;;;;33.86;48.06;98940.13;5052419;28;20578;-78
2022/08/19 09:52:31;;;;;;;11.70;6.80;;;;;;;33.87;48.28;98942.59;5051883;28;20073;-78
2022/08/19 09:54:56;;;;;;;6.88;6.18;;;;;;;33.89;48.03;98934.25;5031231;28;20048;-77
2022/08/19 09:57:21;;;;;;;8.13;6.03;;;;;;;33.86;48.05;98929.31;5051998;28;20104;-78
2022/08/19 09:59:47;;;;;;;6.53;5.88;;;;;;;33.93;48.74;98938.13;5052482;28;20032;-77
2022/08/19 10:02:13;;;;;;;8.52;7.07;;;;;;;33.95;48.71;98942.19;5051635;28;20033;-78
2022/08/19 10:07:22;;;;;;;7.07;5.95;;;;;;;33.83;48.19;98949.53;5049708;28;20566;-78
2022/08/19 10:09:48;;;;;;;6.60;5.97;;;;;;;33.85;48.14;98950.13;5051937;28;20044;-78
2022/08/19 10:12:15;;;;;;;10.68;6.18;;;;;;;33.72;48.54;98945.00;5051754;28;20064;-78
2022/08/19 10:14:40;;;;;;;14.95;6.97;;;;;;;33.74;48.91;98953.66;5050982;28;20029;-78
2022/08/19 10:17:06;;;;;;;8.57;6.72;;;;;;;33.45;48.67;98947.38;5050785;28;20123;-78
2022/08/19 10:19:35;;;;;;;7.32;6.07;;;;;;;33.28;49.37;98945.38;5050509;28;20162;-78
2022/08/19 10:22:04;;;;;;;11.38;7.28;;;;;;;33.40;50.08;98953.47;5047916;28;20452;-77
2022/08/19 10:24:30;;;;;;;9.50;6.63;;;;;;;33.50;49.63;98953.72;5049426;28;20096;-78
2022/08/19 10:26:57;;;;;;;10.57;7.13;;;;;;;33.53;49.41;98949.72;5032190;28;20511;-78
2022/08/19 10:29:23;;;;;;;9.32;6.47;;;;;;;33.65;49.90;98968.59;5050314;28;20100;-80
2022/08/19 10:31:49;;;;;;;8.73;6.22;;;;;;;33.67;49.25;98956.53;5032608;28;20454;-82
2022/08/19 10:34:14;;;;;;;10.48;6.22;;;;;;;33.69;50.15;98961.66;5050214;28;20041;-83
2022/08/19 10:36:39;;;;;;;8.35;6.30;;;;;;;33.68;50.10;98958.16;5051467;28;20017;-82
2022/08/19 10:39:09;;;;;;;10.73;7.80;;;;;;;33.44;47.54;98953.81;5051663;28;20029;-83
2022/08/19 10:41:38;;;;;;;12.82;7.07;;;;;;;33.26;47.46;98944.81;5051544;28;20357;-83
2022/08/19 10:44:06;;;;;;;10.30;7.30;;;;;;;33.22;48.43;98935.53;5018320;28;20032;-84
2022/08/19 10:46:33;;;;;;;9.95;6.55;;;;;;;33.36;48.84;98941.50;5023632;28;20017;-82
2022/08/19 10:49:05;;;;;;;7.65;6.07;;;;;;;33.42;48.60;98928.94;5022087;28;20017;-87
2022/08/19 10:54:17;;;;;;;9.57;6.68;;;;;;;33.76;48.36;98954.25;5051953;28;20047;-81
2022/08/19 10:56:51;;;;;;;11.35;6.93;;;;;;;33.82;47.89;98941.66;5051777;28;20024;-81
2022/08/19 10:59:20;;;;;;;9.45;6.57;;;;;;;33.98;48.04;98952.56;5051315;28;20025;-81
2022/08/19 11:01:46;;;;;;;12.90;7.93;;;;;;;33.99;48.47;98938.00;5033032;28;20067;-82
2022/08/19 11:04:13;;;;;;;10.10;8.10;;;;;;;34.15;47.44;98946.41;5033223;28;20061;-85
2022/08/19 11:06:41;;;;;;;13.15;8.88;;;;;;;33.99;47.28;98921.78;5051638;28;20073;-85
2022/08/19 11:09:07;;;;;;;10.38;9.23;;;;;;;34.02;47.15;98936.69;5050164;28;20036;-86
2022/08/19 11:11:40;;;;;;;14.27;8.98;;;;;;;33.68;48.30;98938.44;5033520;28;20033;-86
2022/08/19 11:14:07;;;;;;;13.52;8.20;;;;;;;33.59;47.34;98935.28;5033236;28;20021;-83
2022/08/19 11:16:33;;;;;;;10.50;7.57;;;;;;;33.54;47.13;98945.94;5040761;28;20060;-83
2022/08/19 11:18:59;;;;;;;9.52;7.70;;;;;;;33.50;47.65;98945.63;5031481;28;20068;-82
2022/08/19 11:21:31;;;;;;;12.55;7.85;;;;;;;33.50;47.27;98942.09;5008825;28;20041;-83
2022/08/19 11:23:59;;;;;;;17.23;8.68;;;;;;;33.46;47.59;98930.16;5008949;28;20038;-84
2022/08/19 11:26:24;;;;;;;14.48;9.18;;;;;;;33.53;48.23;98952.41;4997407;28;20049;-86
2022/08/19 11:28:53;;;;;;;14.95;8.55;;;;;;;33.51;47.89;98944.56;5011023;28;20585;-87
2022/08/19 11:31:21;;;;;;;11.50;8.07;;;;;;;33.56;47.92;98951.13;5027327;28;20135;-85
2022/08/19 11:33:50;;;;;;;8.20;6.97;;;;;;;33.71;47.92;98957.69;5027585;28;20481;-85
2022/08/19 11:36:16;;;;;;;12.50;8.40;;;;;;;33.81;47.64;98948.97;5009686;28;20157;-85
2022/08/19 11:38:42;;;;;;;11.30;7.78;;;;;;;33.89;47.25;98947.75;5032779;28;20053;-83
2022/08/19 11:41:08;;;;;;;9.68;7.80;;;;;;;33.99;46.59;98956.91;5032413;28;20504;-86
2022/08/19 11:43:34;;;;;;;12.55;8.32;;;;;;;34.03;46.96;98953.72;5032451;28;20409;-83
2022/08/19 11:46:06;;;;;;;10.82;8.07;;;;;;;33.99;47.53;98961.50;5032428;28;20037;-81